774  
SXUS95 KTFX 261915  
MTTTFX  
 
AREA AWOS OBSERVATIONS  
NATIONAL WEATHER SERVICE GREAT FALLS MT  
1215 PM MST FRI FEB 26 2021  
 
METAR K6S5 261910Z AUTO 18013KT 10SM CLR 01/M03 A2963 RMK AO2 HAMILTON  
 
CLICK HERE TO GO TO PREVIOUS BULLETINS.

The Nexlab MT Page Main Text Page